Time;durP1;ratioP1;P1;durP2;ratioP2;P2;SDS_P1;SDS_P2;PMS_P1;PMS_P2;Temp;Humidity;BMP_temperature;BMP_pressure;BME280_temperature;BME280_humidity;BME280_pressure;Samples;Min_cycle;Max_cycle;Signal;HPM_P1;HPM_P2
2021/12/07 00:02:19;;;;;;;;;41.50;39.75;;;;;2.08;100.00;98674.38;4999806;28;8994;-74
2021/12/07 00:04:49;;;;;;;;;45.50;41.75;;;;;2.01;100.00;98675.97;5050613;28;8855;-74
2021/12/07 00:07:18;;;;;;;;;45.00;39.50;;;;;2.00;100.00;98674.22;5049115;28;8871;-76
2021/12/07 00:09:49;;;;;;;;;46.75;39.25;;;;;1.92;100.00;98680.91;5049171;28;8858;-74
2021/12/07 00:12:19;;;;;;;;;48.50;43.50;;;;;2.03;100.00;98673.44;5049444;28;8858;-76
2021/12/07 00:14:48;;;;;;;;;51.00;44.25;;;;;1.86;100.00;98686.81;5050378;28;8850;-75
2021/12/07 00:17:16;;;;;;;;;47.50;44.25;;;;;1.86;100.00;98671.38;5066081;28;8889;-76
2021/12/07 00:19:45;;;;;;;;;55.75;47.00;;;;;1.92;100.00;98671.50;5015372;28;8997;-75
2021/12/07 00:22:15;;;;;;;;;39.50;37.25;;;;;1.81;100.00;98674.69;5049297;28;8904;-75
2021/12/07 00:24:44;;;;;;;;;51.50;43.50;;;;;1.71;100.00;98676.22;5048799;28;8847;-74
2021/12/07 00:27:12;;;;;;;;;43.50;40.50;;;;;1.64;100.00;98685.47;5058858;28;8924;-75
2021/12/07 00:29:41;;;;;;;;;36.75;34.75;;;;;1.62;100.00;98694.00;5032697;28;8927;-75
2021/12/07 00:32:23;;;;;;;;;47.00;45.00;;;;;1.63;100.00;98688.03;5065447;28;8847;-74
2021/12/07 00:37:46;;;;;;;;;47.75;40.50;;;;;1.67;100.00;98695.84;5011390;28;8877;-75
2021/12/07 00:40:19;;;;;;;;;47.00;40.00;;;;;1.54;100.00;98699.84;5011063;28;8861;-75
2021/12/07 00:42:48;;;;;;;;;41.00;38.00;;;;;1.60;100.00;98693.97;4995297;28;8864;-76
2021/12/07 00:45:21;;;;;;;;;46.75;39.50;;;;;1.62;100.00;98688.88;5001669;28;8865;-74
2021/12/07 00:47:51;;;;;;;;;52.25;45.25;;;;;1.70;100.00;98690.78;5027609;28;8869;-76
2021/12/07 00:50:23;;;;;;;;;51.50;45.25;;;;;1.60;100.00;98683.69;4994511;28;8963;-76
2021/12/07 00:52:54;;;;;;;;;47.00;41.25;;;;;1.47;100.00;98687.69;5010644;28;8866;-74
2021/12/07 00:55:29;;;;;;;;;49.50;45.00;;;;;1.43;100.00;98687.59;4978586;28;9027;-74
2021/12/07 00:58:00;;;;;;;;;55.25;48.00;;;;;1.46;100.00;98685.13;5024042;28;8913;-74
2021/12/07 01:00:31;;;;;;;;;50.75;44.50;;;;;1.52;100.00;98685.25;5023078;28;8862;-75
2021/12/07 01:03:00;;;;;;;;;55.25;45.00;;;;;1.69;100.00;98683.03;5027005;28;9714;-74
2021/12/07 01:05:33;;;;;;;;;52.25;45.75;;;;;1.72;100.00;98672.78;4987675;28;8909;-75
2021/12/07 01:08:19;;;;;;;;;47.75;45.00;;;;;1.65;100.00;98676.09;4955714;28;8951;-75
2021/12/07 01:24:43;;;;;;;;;35.75;35.00;;;;;1.54;100.00;98675.88;4964627;28;8866;-75
2021/12/07 01:27:14;;;;;;;;;47.50;43.75;;;;;1.48;100.00;98673.16;4948296;28;8874;-74
2021/12/07 01:29:45;;;;;;;;;64.00;48.00;;;;;1.43;100.00;98667.06;4945432;28;8883;-75
2021/12/07 01:38:08;;;;;;;;;41.50;36.75;;;;;1.76;100.00;98682.31;5042394;28;8914;-75
2021/12/07 01:43:58;;;;;;;;;39.50;36.00;;;;;1.58;100.00;98675.09;5022133;28;8874;-74
2021/12/07 01:50:04;;;;;;;;;39.25;33.75;;;;;2.01;100.00;98670.81;4944308;28;8953;-75
2021/12/07 02:00:51;;;;;;;;;44.00;37.25;;;;;1.83;100.00;98662.75;4889679;29;8880;-75
2021/12/07 02:03:20;;;;;;;;;41.50;33.00;;;;;2.08;100.00;98656.34;4890054;29;8900;-75
2021/12/07 02:05:50;;;;;;;;;36.25;34.25;;;;;2.26;100.00;98645.56;4921288;29;8881;-75
2021/12/07 02:08:21;;;;;;;;;39.25;33.50;;;;;2.23;100.00;98658.34;4860326;29;13791;-74
2021/12/07 02:10:54;;;;;;;;;42.25;36.50;;;;;2.15;99.79;98653.06;4867098;29;8868;-74
2021/12/07 02:14:05;;;;;;;;;38.50;35.00;;;;;1.81;100.00;98652.41;4905743;29;9719;-75
2021/12/07 02:16:15;;;;;;;;;52.00;37.50;;;;;2.20;100.00;98635.16;4903495;29;8880;-78
2021/12/07 02:18:45;;;;;;;;;41.00;33.25;;;;;1.68;99.56;98647.88;4940692;29;8973;-75
2021/12/07 02:21:21;;;;;;;;;36.75;36.50;;;;;1.32;100.00;98641.13;4893542;29;9056;-74
2021/12/07 02:23:55;;;;;;;;;42.00;37.25;;;;;1.26;100.00;98635.88;4932141;28;8880;-76
2021/12/07 02:26:24;;;;;;;;;40.00;39.75;;;;;1.25;100.00;98628.97;4962969;28;8848;-74
2021/12/07 02:28:53;;;;;;;;;43.25;36.50;;;;;1.41;100.00;98633.63;4931362;28;8865;-75
2021/12/07 02:31:23;;;;;;;;;38.50;36.00;;;;;1.28;100.00;98631.63;4947014;28;8930;-75
2021/12/07 02:33:53;;;;;;;;;29.50;24.50;;;;;1.44;100.00;98630.28;5030182;28;8860;-75
2021/12/07 02:36:24;;;;;;;;;45.25;40.50;;;;;1.27;100.00;98637.63;5041505;28;8883;-75
2021/12/07 02:38:55;;;;;;;;;40.75;38.75;;;;;1.50;100.00;98626.13;5022691;28;8854;-74
2021/12/07 02:41:24;;;;;;;;;40.50;39.00;;;;;1.61;100.00;98633.16;5039722;28;8971;-75
2021/12/07 02:43:52;;;;;;;;;41.25;39.50;;;;;1.55;100.00;98632.22;5006458;28;8874;-75
2021/12/07 02:46:21;;;;;;;;;47.00;37.25;;;;;1.87;100.00;98637.16;5009510;28;8862;-75
2021/12/07 02:48:54;;;;;;;;;41.25;34.00;;;;;2.10;99.82;98629.00;5025572;28;8838;-74
2021/12/07 02:51:25;;;;;;;;;42.75;35.75;;;;;2.27;98.22;98625.03;4976607;28;8927;-74
2021/12/07 02:53:56;;;;;;;;;35.00;27.75;;;;;2.56;98.05;98628.94;5009485;28;8882;-75
2021/12/07 02:56:25;;;;;;;;;41.75;39.25;;;;;2.64;95.73;98627.34;4976022;28;8939;-75
2021/12/07 02:58:59;;;;;;;;;33.25;27.50;;;;;2.60;94.08;98623.84;4989995;28;8849;-76
2021/12/07 03:01:32;;;;;;;;;41.00;33.50;;;;;2.75;94.24;98618.06;4984822;28;10402;-75
2021/12/07 03:04:06;;;;;;;;;39.00;37.00;;;;;2.35;92.18;98625.16;4989492;28;8857;-75
2021/12/07 03:06:55;;;;;;;;;45.00;40.50;;;;;2.36;92.86;98620.88;4975509;28;8894;-75
2021/12/07 03:26:16;;;;;;;;;31.25;29.75;;;;;2.76;91.70;98616.38;4968587;28;8888;-75
2021/12/07 03:28:49;;;;;;;;;32.75;29.75;;;;;2.74;91.53;98613.75;4948591;28;8891;-76
2021/12/07 03:31:25;;;;;;;;;36.50;30.00;;;;;2.90;91.41;98614.88;4958670;28;8882;-75
2021/12/07 03:33:56;;;;;;;;;30.75;29.00;;;;;2.52;90.59;98617.72;4938875;28;8858;-75
2021/12/07 03:36:28;;;;;;;;;33.25;27.25;;;;;2.66;91.09;98610.22;4968028;28;9600;-74
2021/12/07 03:39:00;;;;;;;;;33.50;30.75;;;;;2.67;89.76;98602.53;4968232;28;8944;-75
2021/12/07 03:41:29;;;;;;;;;23.50;22.25;;;;;2.52;89.71;98590.25;4967281;28;8882;-74
2021/12/07 03:43:59;;;;;;;;;29.75;26.50;;;;;2.57;90.20;98590.34;4987273;28;9057;-74
2021/12/07 03:46:29;;;;;;;;;27.75;26.00;;;;;2.53;90.69;98593.69;4947000;28;8897;-76
2021/12/07 03:48:58;;;;;;;;;27.75;24.50;;;;;2.49;90.91;98603.06;4938393;28;8883;-75
2021/12/07 03:51:28;;;;;;;;;33.50;30.00;;;;;2.14;90.30;98595.63;4968080;28;8885;-74
2021/12/07 03:53:57;;;;;;;;;32.50;25.00;;;;;2.18;90.41;98600.84;4968035;28;8886;-75
2021/12/07 03:56:28;;;;;;;;;27.75;24.25;;;;;2.02;91.57;98615.13;4984450;28;8865;-75
2021/12/07 03:58:57;;;;;;;;;33.50;24.00;;;;;2.28;92.32;98618.16;4969472;28;8868;-74
2021/12/07 04:01:27;;;;;;;;;26.50;23.25;;;;;2.50;92.29;98624.53;5005915;28;8852;-75
2021/12/07 04:04:02;;;;;;;;;29.00;28.75;;;;;2.37;89.57;98612.31;4993777;28;8969;-74
2021/12/07 04:06:31;;;;;;;;;27.75;26.00;;;;;2.44;91.03;98593.53;4978161;28;8858;-76
2021/12/07 04:09:00;;;;;;;;;25.75;22.00;;;;;1.92;91.28;98589.22;4990452;28;8910;-76
2021/12/07 04:11:30;;;;;;;;;26.25;22.75;;;;;2.25;92.45;98608.69;5009748;28;8845;-74
2021/12/07 04:13:59;;;;;;;;;26.00;22.00;;;;;2.33;91.01;98611.41;5009548;28;8935;-74
2021/12/07 04:16:30;;;;;;;;;26.25;24.25;;;;;2.45;91.52;98610.72;4986847;28;8852;-76
2021/12/07 04:19:01;;;;;;;;;31.50;25.50;;;;;2.41;90.86;98617.53;4955029;28;8884;-75
2021/12/07 04:21:31;;;;;;;;;28.25;27.25;;;;;2.64;90.61;98617.91;4986284;28;8951;-75
2021/12/07 04:24:00;;;;;;;;;26.00;25.00;;;;;2.65;87.99;98618.78;4920698;28;8870;-74
2021/12/07 04:26:31;;;;;;;;;28.00;22.75;;;;;2.80;89.73;98620.72;4975001;28;14018;-76
2021/12/07 04:28:59;;;;;;;;;22.60;20.80;;;;;2.83;89.32;98616.47;5005625;28;8846;-73
2021/12/07 04:31:28;;;;;;;;;47.50;42.75;;;;;2.85;87.98;98612.22;4986850;28;8885;-77
2021/12/07 04:33:57;;;;;;;;;32.50;30.25;;;;;2.76;88.15;98613.78;5005794;28;8909;-75
2021/12/07 04:36:26;;;;;;;;;27.75;27.50;;;;;2.90;87.14;98615.72;4981934;28;8892;-76
2021/12/07 04:38:54;;;;;;;;;27.60;23.60;;;;;2.46;88.22;98620.19;4980291;28;9663;-75
2021/12/07 04:41:23;;;;;;;;;25.25;20.25;;;;;2.21;87.76;98618.88;4980417;28;8880;-74
2021/12/07 04:43:53;;;;;;;;;18.40;16.20;;;;;2.27;88.46;98624.13;4986318;28;8885;-75
2021/12/07 04:46:30;;;;;;;;;28.25;22.25;;;;;2.10;89.27;98618.72;4986565;28;8915;-74
2021/12/07 05:00:04;;;;;;;;;23.00;21.60;;;;;1.77;91.68;98613.78;5007213;28;8835;-74
2021/12/07 05:02:35;;;;;;;;;20.00;17.50;;;;;1.93;90.81;98615.84;4990915;28;8869;-75
2021/12/07 05:05:04;;;;;;;;;35.75;29.25;;;;;1.97;91.78;98615.03;4988709;28;8958;-75
2021/12/07 05:07:37;;;;;;;;;32.00;26.75;;;;;2.15;90.56;98619.63;5008306;28;8862;-75
2021/12/07 05:10:21;;;;;;;;;25.75;22.25;;;;;1.93;90.69;98626.13;5007448;28;8854;-76
2021/12/07 05:18:39;;;;;;;;;31.50;30.25;;;;;1.25;95.47;98624.75;5007138;28;9615;-74
2021/12/07 05:24:02;;;;;;;;;29.00;23.00;;;;;1.16;96.46;98635.66;4990759;28;8861;-74
2021/12/07 05:37:52;;;;;;;;;41.75;36.00;;;;;0.91;100.00;98635.97;5003763;28;8880;-75
2021/12/07 05:40:23;;;;;;;;;34.75;29.25;;;;;1.26;98.82;98638.44;4984514;28;8877;-74
2021/12/07 05:42:52;;;;;;;;;24.50;23.50;;;;;1.44;97.09;98638.84;4998435;28;8890;-74
2021/12/07 05:45:24;;;;;;;;;33.25;28.00;;;;;1.54;95.35;98645.88;5006621;28;8913;-74
2021/12/07 05:47:55;;;;;;;;;35.25;30.25;;;;;1.26;95.91;98649.56;5007880;28;8872;-75
2021/12/07 05:50:26;;;;;;;;;30.00;28.50;;;;;1.17;97.26;98649.38;5008394;28;8898;-73
2021/12/07 05:52:56;;;;;;;;;23.25;19.75;;;;;1.03;98.98;98643.94;5007942;28;8852;-75
2021/12/07 05:55:25;;;;;;;;;31.50;28.25;;;;;0.99;97.53;98643.84;5008050;28;8872;-74
2021/12/07 05:57:54;;;;;;;;;29.25;25.25;;;;;1.10;98.70;98639.81;5008298;28;8856;-74
2021/12/07 06:00:27;;;;;;;;;30.25;25.50;;;;;1.44;97.27;98643.97;5010897;28;8882;-75
2021/12/07 06:03:00;;;;;;;;;39.00;30.25;;;;;1.56;95.11;98643.34;4975642;28;8887;-75
2021/12/07 06:05:30;;;;;;;;;39.00;31.25;;;;;1.11;96.90;98644.09;5009384;28;9633;-74
2021/12/07 06:07:59;;;;;;;;;30.25;29.25;;;;;1.00;97.93;98637.84;5025735;28;8848;-75
2021/12/07 06:10:28;;;;;;;;;40.75;32.75;;;;;0.62;99.99;98645.53;5025359;28;8941;-73
2021/12/07 06:12:58;;;;;;;;;32.25;27.75;;;;;0.66;100.00;98648.22;5024967;28;8860;-75
2021/12/07 06:15:31;;;;;;;;;35.00;28.50;;;;;0.40;100.00;98645.00;5008212;28;8899;-75
2021/12/07 06:18:01;;;;;;;;;32.25;27.25;;;;;0.43;100.00;98639.94;5007460;28;9613;-75
2021/12/07 06:20:30;;;;;;;;;38.00;36.75;;;;;0.37;100.00;98644.91;5025074;28;9270;-75
2021/12/07 06:23:17;;;;;;;;;41.25;33.75;;;;;0.18;100.00;98638.44;5010850;28;9003;-74
2021/12/07 06:25:47;;;;;;;;;39.25;35.50;;;;;0.37;100.00;98639.78;5009750;28;8885;-75
2021/12/07 06:28:17;;;;;;;;;41.00;35.50;;;;;0.42;100.00;98639.88;4968258;28;8871;-75
2021/12/07 06:30:48;;;;;;;;;36.25;31.75;;;;;0.48;100.00;98650.31;4969530;28;8961;-75
2021/12/07 06:33:21;;;;;;;;;34.75;31.50;;;;;0.69;100.00;98645.69;4905639;28;8891;-75
2021/12/07 06:35:50;;;;;;;;;25.00;21.00;;;;;0.93;100.00;98642.00;4970029;28;8887;-75
2021/12/07 06:38:19;;;;;;;;;27.75;23.75;;;;;0.62;100.00;98651.50;4934641;28;8877;-75
2021/12/07 06:40:48;;;;;;;;;30.25;27.25;;;;;0.63;100.00;98649.84;4977570;28;8881;-75
2021/12/07 06:43:16;;;;;;;;;30.00;28.00;;;;;0.63;100.00;98657.53;4937254;28;8866;-74
2021/12/07 06:45:45;;;;;;;;;32.75;26.00;;;;;0.45;100.00;98645.09;4984802;28;8887;-75
2021/12/07 06:48:14;;;;;;;;;24.25;21.50;;;;;0.60;100.00;98642.91;4952663;28;8877;-74
2021/12/07 06:50:45;;;;;;;;;24.75;21.75;;;;;0.62;100.00;98645.53;4968380;28;8870;-76
2021/12/07 06:53:13;;;;;;;;;32.50;27.50;;;;;0.53;100.00;98646.16;4965629;28;8846;-75
2021/12/07 06:55:42;;;;;;;;;34.25;29.50;;;;;0.29;100.00;98642.16;4952067;28;8871;-75
2021/12/07 06:58:11;;;;;;;;;27.25;26.00;;;;;0.22;100.00;98636.81;4967832;28;8883;-75
2021/12/07 07:00:40;;;;;;;;;30.50;26.50;;;;;0.18;100.00;98638.44;5009127;28;8978;-76
2021/12/07 07:03:08;;;;;;;;;38.75;30.50;;;;;0.10;100.00;98628.00;4960713;28;8864;-75
2021/12/07 07:05:37;;;;;;;;;35.50;30.75;;;;;0.09;100.00;98643.31;5018736;28;8852;-76
2021/12/07 07:08:08;;;;;;;;;39.25;30.75;;;;;0.06;100.00;98631.31;4993320;28;8877;-76
2021/12/07 07:10:37;;;;;;;;;32.00;29.50;;;;;0.03;100.00;98638.91;5007134;28;9112;-74
2021/12/07 07:13:06;;;;;;;;;34.25;30.50;;;;;0.02;100.00;98644.88;5007084;28;9001;-74
2021/12/07 07:15:35;;;;;;;;;36.50;30.00;;;;;0.05;100.00;98644.06;5005550;28;8850;-76
2021/12/07 07:18:03;;;;;;;;;29.50;25.75;;;;;-0.05;100.00;98648.09;4991165;28;8866;-75
2021/12/07 07:20:32;;;;;;;;;34.25;29.75;;;;;-0.06;100.00;98648.91;5006653;28;8866;-74
2021/12/07 07:23:01;;;;;;;;;41.50;32.00;;;;;0.04;100.00;98652.56;4990846;28;8889;-75
2021/12/07 07:25:31;;;;;;;;;41.50;36.75;;;;;0.07;100.00;98655.22;4974135;28;9056;-76
2021/12/07 07:28:00;;;;;;;;;48.25;39.50;;;;;0.04;100.00;98657.69;4990280;28;8878;-75
2021/12/07 07:30:29;;;;;;;;;39.50;35.00;;;;;0.03;100.00;98656.84;5006854;28;8869;-76
2021/12/07 07:32:58;;;;;;;;;38.75;34.50;;;;;0.01;100.00;98655.06;4990301;28;9745;-76
2021/12/07 07:35:27;;;;;;;;;46.25;37.75;;;;;0.01;100.00;98661.06;4990053;28;8913;-75
2021/12/07 07:37:56;;;;;;;;;34.50;32.50;;;;;0.05;100.00;98659.44;5006236;28;8855;-76
2021/12/07 07:40:24;;;;;;;;;38.75;33.25;;;;;0.05;100.00;98657.75;4999181;28;8905;-75
2021/12/07 07:42:55;;;;;;;;;38.00;31.00;;;;;-0.03;100.00;98666.94;4981522;28;8892;-75
2021/12/07 07:45:38;;;;;;;;;46.75;37.00;;;;;0.05;100.00;98669.69;4990151;28;8915;-75
2021/12/07 07:48:07;;;;;;;;;41.00;36.50;;;;;-0.07;100.00;98680.50;5005573;28;8882;-75
2021/12/07 07:50:36;;;;;;;;;38.75;31.00;;;;;-0.09;100.00;98683.00;5006516;28;8955;-76
2021/12/07 07:53:06;;;;;;;;;41.50;39.25;;;;;-0.20;100.00;98689.53;5006757;28;8912;-75
2021/12/07 07:55:38;;;;;;;;;46.75;42.00;;;;;-0.13;100.00;98686.31;5001167;28;8856;-74
2021/12/07 07:58:08;;;;;;;;;49.00;42.00;;;;;-0.07;100.00;98689.03;4989626;28;8893;-77
2021/12/07 08:00:38;;;;;;;;;52.50;47.00;;;;;-0.12;100.00;98692.31;5006485;28;8874;-77
2021/12/07 08:03:07;;;;;;;;;45.50;39.75;;;;;-0.12;100.00;98694.88;5009380;28;9055;-76
2021/12/07 08:05:36;;;;;;;;;41.75;37.50;;;;;-0.05;100.00;98700.19;5026142;28;8848;-76
2021/12/07 08:08:06;;;;;;;;;57.00;46.75;;;;;0.02;100.00;98692.69;4950004;28;8900;-77
2021/12/07 08:10:36;;;;;;;;;53.75;40.50;;;;;-0.02;100.00;98701.97;4952965;28;8904;-76
2021/12/07 08:13:09;;;;;;;;;42.75;38.50;;;;;-0.08;100.00;98701.81;4957869;28;8905;-76
2021/12/07 08:15:42;;;;;;;;;46.50;45.00;;;;;-0.01;100.00;98691.78;4996846;28;8986;-75
2021/12/07 08:18:13;;;;;;;;;45.50;41.25;;;;;0.16;100.00;98693.94;4958149;28;8929;-75
2021/12/07 08:20:43;;;;;;;;;58.50;45.00;;;;;0.00;100.00;98692.66;4967754;28;8928;-76
2021/12/07 08:23:12;;;;;;;;;50.00;45.00;;;;;-0.04;100.00;98694.25;4952296;28;8925;-74
2021/12/07 08:25:45;;;;;;;;;44.75;42.25;;;;;-0.08;100.00;98689.84;4952108;28;9008;-74
2021/12/07 08:28:19;;;;;;;;;51.50;43.50;;;;;0.07;100.00;98688.56;4950746;28;8851;-75
2021/12/07 08:30:50;;;;;;;;;47.25;40.50;;;;;0.05;100.00;98695.34;4954505;28;8949;-75
2021/12/07 08:33:20;;;;;;;;;60.50;48.50;;;;;0.05;100.00;98697.91;4977184;28;8887;-75
2021/12/07 08:35:49;;;;;;;;;56.00;47.50;;;;;0.16;100.00;98696.50;4928108;29;8880;-74
2021/12/07 08:38:17;;;;;;;;;57.00;46.50;;;;;0.12;100.00;98695.53;4896478;29;8987;-74
2021/12/07 08:40:53;;;;;;;;;56.50;47.75;;;;;0.19;100.00;98694.88;4928484;29;9005;-77
2021/12/07 08:43:26;;;;;;;;;53.25;45.75;;;;;0.23;100.00;98679.56;4911194;29;9854;-75
2021/12/07 08:45:57;;;;;;;;;50.00;41.50;;;;;0.03;100.00;98684.19;4922154;28;8862;-76
2021/12/07 08:48:26;;;;;;;;;50.00;46.50;;;;;0.13;100.00;98674.22;4943591;28;8891;-75
2021/12/07 08:50:56;;;;;;;;;55.50;46.25;;;;;0.05;100.00;98685.94;4950178;28;8867;-75
2021/12/07 08:53:27;;;;;;;;;58.25;46.50;;;;;-0.05;100.00;98691.66;4965522;28;8903;-75
2021/12/07 09:01:34;;;;;;;;;59.25;49.25;;;;;-0.07;100.00;98688.19;4939939;28;8887;-76
2021/12/07 09:04:05;;;;;;;;;43.50;38.75;;;;;-0.18;100.00;98698.13;4950119;28;8855;-77
2021/12/07 09:06:34;;;;;;;;;50.75;45.00;;;;;-0.06;100.00;98683.09;4963005;28;8916;-75
2021/12/07 09:09:02;;;;;;;;;67.50;52.00;;;;;-0.01;100.00;98684.06;4990600;28;8866;-75
2021/12/07 09:11:31;;;;;;;;;53.00;42.75;;;;;-0.20;100.00;98676.72;4973259;28;8901;-75
2021/12/07 09:14:01;;;;;;;;;59.50;49.00;;;;;-0.11;100.00;98676.97;5006414;28;8863;-74
2021/12/07 09:16:30;;;;;;;;;57.50;48.25;;;;;-0.04;100.00;98672.88;5023170;28;8967;-75
2021/12/07 09:18:59;;;;;;;;;50.50;41.75;;;;;0.03;100.00;98676.47;5007591;28;8866;-76
2021/12/07 09:21:27;;;;;;;;;51.75;47.50;;;;;-0.02;100.00;98668.66;5024373;28;8868;-75
2021/12/07 09:23:56;;;;;;;;;43.00;35.25;;;;;-0.05;100.00;98664.31;5005123;28;9782;-75
2021/12/07 09:26:25;;;;;;;;;65.00;49.50;;;;;0.00;100.00;98679.84;5023908;28;8856;-75
2021/12/07 09:28:55;;;;;;;;;60.75;49.00;;;;;0.06;100.00;98677.44;5024549;28;8856;-74
2021/12/07 09:31:25;;;;;;;;;69.25;51.75;;;;;0.14;100.00;98678.50;5023194;28;8848;-75
2021/12/07 09:33:55;;;;;;;;;59.75;48.25;;;;;0.12;100.00;98669.91;5000801;28;8935;-75
2021/12/07 09:36:25;;;;;;;;;47.75;40.00;;;;;0.03;100.00;98666.22;5003216;28;8870;-75
2021/12/07 09:38:56;;;;;;;;;51.75;46.50;;;;;0.15;100.00;98670.00;4986910;28;8859;-75
2021/12/07 09:41:25;;;;;;;;;58.25;46.25;;;;;0.14;100.00;98669.94;5004130;28;8866;-76
2021/12/07 09:43:53;;;;;;;;;69.00;57.75;;;;;0.14;100.00;98664.84;4971785;28;8842;-74
2021/12/07 09:46:22;;;;;;;;;52.00;46.00;;;;;0.14;100.00;98669.94;5003939;28;8835;-75
2021/12/07 09:48:54;;;;;;;;;51.50;46.50;;;;;0.28;100.00;98678.84;4971696;28;8862;-75
2021/12/07 09:51:25;;;;;;;;;57.50;48.75;;;;;0.23;100.00;98672.75;4971554;28;8846;-75
2021/12/07 09:53:56;;;;;;;;;60.50;51.50;;;;;0.13;100.00;98674.22;4988329;28;8880;-77
2021/12/07 09:56:25;;;;;;;;;54.25;48.25;;;;;0.17;100.00;98667.44;4990675;28;8884;-75
2021/12/07 09:58:56;;;;;;;;;56.50;50.00;;;;;0.30;100.00;98664.41;4991901;28;8908;-75
2021/12/07 10:01:27;;;;;;;;;65.00;51.75;;;;;0.35;100.00;98664.53;5005974;28;8874;-74
2021/12/07 10:03:58;;;;;;;;;61.75;51.25;;;;;0.49;100.00;98657.16;4991278;28;8916;-77
2021/12/07 10:06:26;;;;;;;;;56.75;49.75;;;;;0.45;100.00;98645.09;5010204;28;8886;-74
2021/12/07 10:08:55;;;;;;;;;51.50;44.50;;;;;0.50;100.00;98654.66;5009849;28;8842;-75
2021/12/07 10:11:24;;;;;;;;;51.50;45.75;;;;;0.48;100.00;98653.75;4993059;28;8862;-75
2021/12/07 10:13:54;;;;;;;;;36.75;27.75;;;;;0.75;100.00;98652.69;5008529;28;8950;-76
2021/12/07 10:16:25;;;;;;;;;62.50;47.50;;;;;0.62;100.00;98653.22;5009587;28;8874;-75
2021/12/07 10:19:00;;;;;;;;;53.75;48.00;;;;;0.49;100.00;98650.38;5009113;28;8943;-75
2021/12/07 10:21:38;;;;;;;;;58.25;50.25;;;;;0.62;100.00;98648.09;5008187;28;8866;-76
2021/12/07 10:24:09;;;;;;;;;60.50;50.00;;;;;0.54;100.00;98642.75;5008596;28;10074;-75
2021/12/07 10:26:41;;;;;;;;;48.25;41.75;;;;;0.63;100.00;98639.56;5009253;28;8992;-78
2021/12/07 10:29:12;;;;;;;;;61.25;49.00;;;;;0.61;100.00;98639.53;5007241;28;8842;-77
2021/12/07 10:31:43;;;;;;;;;57.50;49.50;;;;;0.62;100.00;98650.66;4986111;28;8870;-78
2021/12/07 10:34:17;;;;;;;;;70.25;54.50;;;;;0.58;100.00;98657.41;5006828;28;9631;-76
2021/12/07 10:36:47;;;;;;;;;59.25;50.25;;;;;0.56;100.00;98653.94;5007033;28;8989;-77
2021/12/07 10:39:18;;;;;;;;;72.00;56.50;;;;;0.53;100.00;98652.16;4989876;28;8878;-77
2021/12/07 10:41:50;;;;;;;;;60.75;49.00;;;;;0.67;100.00;98649.06;4991361;28;8882;-77
2021/12/07 10:44:21;;;;;;;;;62.50;51.00;;;;;0.48;100.00;98646.03;5007498;28;9009;-77
2021/12/07 10:46:53;;;;;;;;;63.75;49.50;;;;;0.68;100.00;98650.78;5005357;28;9610;-76
2021/12/07 10:49:33;;;;;;;;;54.00;48.75;;;;;0.66;100.00;98642.19;4981913;28;8831;-78
2021/12/07 10:52:26;;;;;;;;;49.50;45.25;;;;;0.32;100.00;98647.38;4958825;28;8967;-78
2021/12/07 10:55:03;;;;;;;;;61.50;49.00;;;;;0.26;100.00;98646.31;4975673;28;8850;-80
2021/12/07 10:57:36;;;;;;;;;66.00;53.25;;;;;0.29;100.00;98637.03;4943649;28;8874;-78
2021/12/07 11:00:16;;;;;;;;;58.75;50.75;;;;;0.20;100.00;98644.47;4972652;28;8857;-78
2021/12/07 11:02:50;;;;;;;;;60.25;47.25;;;;;0.21;100.00;98647.91;5000437;28;8947;-79
2021/12/07 11:05:23;;;;;;;;;59.75;51.25;;;;;0.11;100.00;98649.34;4975090;28;8851;-78
2021/12/07 11:07:52;;;;;;;;;41.25;36.50;;;;;0.09;100.00;98644.19;5000767;28;8862;-77
2021/12/07 11:10:29;;;;;;;;;64.25;50.00;;;;;0.12;100.00;98644.28;5009807;28;8838;-78
2021/12/07 11:13:06;;;;;;;;;52.00;48.75;;;;;0.14;100.00;98644.31;4992272;28;8974;-79
2021/12/07 11:15:37;;;;;;;;;49.75;40.50;;;;;0.14;100.00;98647.75;5025536;28;8863;-78
2021/12/07 11:18:10;;;;;;;;;56.25;49.00;;;;;0.28;100.00;98635.28;4992397;28;8882;-77
2021/12/07 11:20:40;;;;;;;;;63.00;50.75;;;;;0.33;100.00;98643.97;4989357;28;8873;-79
2021/12/07 11:23:13;;;;;;;;;58.50;51.00;;;;;0.22;100.00;98649.66;5037531;28;9041;-79
2021/12/07 11:29:39;;;;;;;;;60.75;49.00;;;;;0.21;100.00;98627.38;5030034;28;8858;-78
2021/12/07 11:31:36;;;;;;;;;63.75;53.00;;;;;0.35;100.00;98626.06;5030283;28;8862;-78
2021/12/07 11:34:07;;;;;;;;;53.25;46.25;;;;;0.41;100.00;98621.06;5025869;28;8880;-77
2021/12/07 11:36:40;;;;;;;;;54.00;44.75;;;;;0.47;100.00;98628.91;5010017;28;8860;-78
2021/12/07 11:39:25;;;;;;;;;57.00;49.50;;;;;0.86;100.00;98619.59;4990410;28;9693;-79
2021/12/07 11:41:58;;;;;;;;;50.75;46.50;;;;;0.78;100.00;98615.13;5022781;28;8856;-79
2021/12/07 11:44:28;;;;;;;;;63.00;52.75;;;;;0.71;100.00;98628.66;5008985;28;8912;-78
2021/12/07 11:46:58;;;;;;;;;63.75;48.50;;;;;0.84;100.00;98618.69;4977882;28;8868;-78
2021/12/07 11:49:29;;;;;;;;;61.25;51.00;;;;;0.97;100.00;98620.69;4977426;28;9019;-77
2021/12/07 11:52:03;;;;;;;;;59.50;49.00;;;;;0.79;100.00;98618.56;5024029;28;8844;-78
2021/12/07 11:54:35;;;;;;;;;57.00;48.75;;;;;0.68;100.00;98628.59;4979403;28;8858;-78
2021/12/07 11:57:06;;;;;;;;;63.50;53.00;;;;;0.94;100.00;98621.47;5006019;28;8850;-78
2021/12/07 11:59:36;;;;;;;;;59.25;49.00;;;;;0.77;100.00;98622.78;5004328;28;8854;-78
2021/12/07 12:02:05;;;;;;;;;67.00;52.00;;;;;0.58;100.00;98629.19;4971978;28;9666;-77
2021/12/07 12:04:34;;;;;;;;;56.00;43.75;;;;;0.57;100.00;98628.31;5005574;28;8866;-77
2021/12/07 12:07:08;;;;;;;;;56.00;48.33;;;;;0.67;100.00;98629.41;5006288;28;8896;-77
2021/12/07 12:09:44;;;;;;;;;58.50;48.25;;;;;0.49;100.00;98626.38;4989495;28;8866;-78
2021/12/07 12:12:21;;;;;;;;;58.00;48.25;;;;;0.58;100.00;98629.19;5007426;28;9556;-78
2021/12/07 12:15:03;;;;;;;;;61.25;52.25;;;;;0.57;100.00;98623.19;5005422;28;8916;-77
2021/12/07 12:17:38;;;;;;;;;64.00;53.25;;;;;0.55;100.00;98621.44;5005963;28;8858;-77
2021/12/07 12:20:18;;;;;;;;;69.00;53.50;;;;;0.82;100.00;98615.22;5006998;28;8908;-77
2021/12/07 12:22:53;;;;;;;;;64.00;49.75;;;;;1.16;100.00;98625.41;5022748;28;8850;-80
2021/12/07 12:25:25;;;;;;;;;67.00;52.00;;;;;1.38;100.00;98625.88;4990294;28;8894;-80
2021/12/07 12:27:56;;;;;;;;;64.50;53.00;;;;;1.14;100.00;98629.63;5007069;28;8870;-78
2021/12/07 12:30:28;;;;;;;;;62.50;48.50;;;;;1.30;100.00;98623.13;5007642;28;8896;-77
2021/12/07 12:33:00;;;;;;;;;60.00;49.00;;;;;1.22;99.50;98629.78;4990574;28;9033;-79
2021/12/07 12:35:38;;;;;;;;;60.00;48.75;;;;;0.82;100.00;98626.34;4990219;28;8961;-77
2021/12/07 12:38:19;;;;;;;;;64.50;53.00;;;;;0.77;100.00;98628.78;4990371;28;8980;-80
2021/12/07 12:40:58;;;;;;;;;49.00;43.00;;;;;0.67;100.00;98629.41;4987735;28;8873;-80
2021/12/07 12:43:35;;;;;;;;;63.00;53.00;;;;;0.90;100.00;98634.22;5001887;28;8967;-79
2021/12/07 12:46:05;;;;;;;;;55.00;45.75;;;;;1.02;100.00;98631.94;5008645;28;8878;-80
2021/12/07 12:48:34;;;;;;;;;53.75;49.00;;;;;1.16;100.00;98630.53;5023286;28;8861;-79
2021/12/07 12:51:04;;;;;;;;;55.75;47.75;;;;;1.07;100.00;98630.31;5022465;28;8850;-80
2021/12/07 12:53:36;;;;;;;;;65.50;49.75;;;;;1.08;100.00;98629.50;5006469;28;8865;-81
2021/12/07 12:56:07;;;;;;;;;68.50;53.50;;;;;1.12;100.00;98633.00;5006957;28;8854;-79
2021/12/07 12:58:42;;;;;;;;;54.00;46.50;;;;;1.10;100.00;98632.13;4989929;28;8873;-80
2021/12/07 13:01:19;;;;;;;;;55.50;48.00;;;;;1.25;100.00;98629.88;5007726;28;8907;-78
2021/12/07 13:04:05;;;;;;;;;56.00;49.00;;;;;0.78;100.00;98630.53;5007835;28;8862;-78
2021/12/07 13:06:54;;;;;;;;;56.75;48.25;;;;;0.86;100.00;98640.97;4988264;28;8951;-76
2021/12/07 13:09:37;;;;;;;;;54.75;47.50;;;;;0.94;100.00;98648.84;5021125;28;8884;-76
2021/12/07 13:12:09;;;;;;;;;55.50;48.00;;;;;0.75;100.00;98650.97;5004709;28;8903;-78
2021/12/07 13:14:58;;;;;;;;;62.75;52.00;;;;;0.69;100.00;98660.22;5004943;28;8889;-76
2021/12/07 13:17:34;;;;;;;;;56.25;48.50;;;;;0.64;100.00;98660.09;4984721;28;8863;-76
2021/12/07 13:20:10;;;;;;;;;64.00;54.00;;;;;0.91;100.00;98653.94;4952496;28;8880;-76
2021/12/07 13:22:43;;;;;;;;;55.00;48.50;;;;;0.75;100.00;98656.09;4968039;28;8874;-76